sensor_id;sensor_type;location;lat;lon;timestamp;pressure;altitude;pressure_sealevel;temperature;humidity
16431;BME280;8325;49.284;7.238;2023-04-07T04:04:56;98617.75;;;4.33;100.00
16431;BME280;8325;49.284;7.238;2023-04-07T04:09:08;98614.34;;;4.33;100.00
16431;BME280;8325;49.284;7.238;2023-04-07T04:13:25;98622.00;;;4.44;100.00
16431;BME280;8325;49.284;7.238;2023-04-07T04:17:39;98613.53;;;4.42;100.00
16431;BME280;8325;49.284;7.238;2023-04-07T04:21:52;98616.69;;;4.46;100.00
16431;BME280;8325;49.284;7.238;2023-04-07T04:26:05;98604.44;;;4.48;100.00
16431;BME280;8325;49.284;7.238;2023-04-07T04:30:17;98604.97;;;4.51;100.00
16431;BME280;8325;49.284;7.238;2023-04-07T04:34:39;98594.38;;;4.54;100.00
16431;BME280;8325;49.284;7.238;2023-04-07T04:38:53;98599.81;;;4.51;100.00
16431;BME280;8325;49.284;7.238;2023-04-07T04:43:05;98609.88;;;4.45;100.00
16431;BME280;8325;49.284;7.238;2023-04-07T04:47:20;98608.25;;;4.44;100.00
16431;BME280;8325;49.284;7.238;2023-04-07T04:51:31;98603.34;;;4.41;100.00
16431;BME280;8325;49.284;7.238;2023-04-07T04:55:49;98606.06;;;4.39;100.00
16431;BME280;8325;49.284;7.238;2023-04-07T05:00:08;98603.47;;;4.39;100.00
16431;BME280;8325;49.284;7.238;2023-04-07T05:04:23;98612.56;;;4.33;100.00
16431;BME280;8325;49.284;7.238;2023-04-07T05:08:43;98614.50;;;4.31;100.00
16431;BME280;8325;49.284;7.238;2023-04-07T05:12:57;98608.75;;;4.28;100.00
16431;BME280;8325;49.284;7.238;2023-04-07T05:17:08;98610.66;;;4.26;100.00
16431;BME280;8325;49.284;7.238;2023-04-07T05:21:21;98595.25;;;4.24;100.00
16431;BME280;8325;49.284;7.238;2023-04-07T05:25:36;98594.72;;;4.21;100.00
16431;BME280;8325;49.284;7.238;2023-04-07T05:29:49;98597.19;;;4.22;100.00
16431;BME280;8325;49.284;7.238;2023-04-07T05:34:08;98597.59;;;4.27;100.00
16431;BME280;8325;49.284;7.238;2023-04-07T05:38:27;98599.78;;;4.22;100.00
16431;BME280;8325;49.284;7.238;2023-04-07T05:42:43;98597.44;;;4.19;100.00
16431;BME280;8325;49.284;7.238;2023-04-07T05:46:54;98599.25;;;4.28;100.00
16431;BME280;8325;49.284;7.238;2023-04-07T05:51:09;98607.00;;;4.28;100.00
16431;BME280;8325;49.284;7.238;2023-04-07T05:55:20;98611.91;;;4.41;100.00
16431;BME280;8325;49.284;7.238;2023-04-07T05:59:34;98614.25;;;4.54;100.00
16431;BME280;8325;49.284;7.238;2023-04-07T06:03:47;98608.28;;;4.82;100.00
16431;BME280;8325;49.284;7.238;2023-04-07T06:08:10;98617.56;;;5.14;100.00
16431;BME280;8325;49.284;7.238;2023-04-07T06:12:21;98614.50;;;5.38;100.00
16431;BME280;8325;49.284;7.238;2023-04-07T06:16:33;98617.47;;;5.53;100.00
16431;BME280;8325;49.284;7.238;2023-04-07T06:20:44;98622.63;;;5.63;100.00
16431;BME280;8325;49.284;7.238;2023-04-07T06:24:56;98625.47;;;5.69;100.00
16431;BME280;8325;49.284;7.238;2023-04-07T06:29:08;98624.63;;;5.88;100.00
16431;BME280;8325;49.284;7.238;2023-04-07T06:33:19;98622.94;;;6.07;100.00
16431;BME280;8325;49.284;7.238;2023-04-07T06:37:36;98632.81;;;6.21;100.00
16431;BME280;8325;49.284;7.238;2023-04-07T06:41:47;98630.09;;;6.22;100.00
16431;BME280;8325;49.284;7.238;2023-04-07T06:45:59;98635.94;;;6.25;100.00
16431;BME280;8325;49.284;7.238;2023-04-07T06:50:10;98631.13;;;6.30;100.00
16431;BME280;8325;49.284;7.238;2023-04-07T06:54:22;98632.97;;;6.47;100.00
16431;BME280;8325;49.284;7.238;2023-04-07T06:58:34;98630.25;;;6.66;100.00
16431;BME280;8325;49.284;7.238;2023-04-07T07:02:46;98634.09;;;6.80;100.00
16431;BME280;8325;49.284;7.238;2023-04-07T07:06:58;98635.16;;;6.87;100.00
16431;BME280;8325;49.284;7.238;2023-04-07T07:11:09;98637.50;;;6.99;100.00
16431;BME280;8325;49.284;7.238;2023-04-07T07:15:21;98643.59;;;7.07;100.00
16431;BME280;8325;49.284;7.238;2023-04-07T07:19:33;98640.78;;;7.19;100.00
16431;BME280;8325;49.284;7.238;2023-04-07T07:23:44;98646.34;;;7.24;100.00
16431;BME280;8325;49.284;7.238;2023-04-07T07:27:57;98649.28;;;7.29;100.00
16431;BME280;8325;49.284;7.238;2023-04-07T07:32:08;98641.56;;;7.37;100.00
16431;BME280;8325;49.284;7.238;2023-04-07T07:36:20;98646.16;;;7.43;100.00
16431;BME280;8325;49.284;7.238;2023-04-07T07:40:32;98651.28;;;7.53;100.00
16431;BME280;8325;49.284;7.238;2023-04-07T07:44:44;98652.81;;;7.64;100.00
16431;BME280;8325;49.284;7.238;2023-04-07T07:48:55;98656.78;;;7.76;100.00
16431;BME280;8325;49.284;7.238;2023-04-07T07:53:07;98661.03;;;7.77;100.00
16431;BME280;8325;49.284;7.238;2023-04-07T07:57:19;98658.63;;;7.83;100.00
16431;BME280;8325;49.284;7.238;2023-04-07T08:01:30;98663.72;;;7.93;100.00
16431;BME280;8325;49.284;7.238;2023-04-07T08:05:42;98669.41;;;7.97;100.00
16431;BME280;8325;49.284;7.238;2023-04-07T08:09:54;98666.06;;;8.13;100.00
16431;BME280;8325;49.284;7.238;2023-04-07T08:14:06;98675.06;;;8.18;100.00
16431;BME280;8325;49.284;7.238;2023-04-07T08:18:20;98679.13;;;8.21;100.00
16431;BME280;8325;49.284;7.238;2023-04-07T08:22:32;98679.81;;;8.23;100.00
16431;BME280;8325;49.284;7.238;2023-04-07T08:26:43;98684.03;;;8.24;100.00
16431;BME280;8325;49.284;7.238;2023-04-07T08:30:56;98686.31;;;8.27;100.00
16431;BME280;8325;49.284;7.238;2023-04-07T08:35:08;98692.34;;;8.27;100.00
16431;BME280;8325;49.284;7.238;2023-04-07T08:39:19;98694.78;;;8.29;100.00
16431;BME280;8325;49.284;7.238;2023-04-07T08:43:34;98695.28;;;8.33;100.00
16431;BME280;8325;49.284;7.238;2023-04-07T08:47:49;98689.72;;;8.62;100.00
16431;BME280;8325;49.284;7.238;2023-04-07T08:52:06;98704.09;;;8.74;100.00
16431;BME280;8325;49.284;7.238;2023-04-07T08:56:21;98708.06;;;8.94;100.00
16431;BME280;8325;49.284;7.238;2023-04-07T09:00:33;98702.88;;;9.11;100.00
16431;BME280;8325;49.284;7.238;2023-04-07T09:04:44;98707.78;;;9.06;100.00
16431;BME280;8325;49.284;7.238;2023-04-07T09:08:57;98714.47;;;9.08;100.00
16431;BME280;8325;49.284;7.238;2023-04-07T09:13:08;98718.38;;;9.29;100.00
16431;BME280;8325;49.284;7.238;2023-04-07T09:17:20;98723.41;;;9.14;100.00
16431;BME280;8325;49.284;7.238;2023-04-07T09:21:49;98722.91;;;9.02;100.00
16431;BME280;8325;49.284;7.238;2023-04-07T09:30:41;98722.78;;;9.28;100.00
16431;BME280;8325;49.284;7.238;2023-04-07T09:35:02;98728.97;;;9.27;100.00
16431;BME280;8325;49.284;7.238;2023-04-07T09:39:14;98728.50;;;9.40;100.00
16431;BME280;8325;49.284;7.238;2023-04-07T09:43:25;98729.47;;;9.39;100.00
16431;BME280;8325;49.284;7.238;2023-04-07T09:47:37;98728.16;;;9.51;100.00
16431;BME280;8325;49.284;7.238;2023-04-07T09:52:02;98729.31;;;9.49;100.00
16431;BME280;8325;49.284;7.238;2023-04-07T09:56:19;98725.41;;;9.61;100.00
16431;BME280;8325;49.284;7.238;2023-04-07T10:00:32;98727.69;;;9.48;100.00
16431;BME280;8325;49.284;7.238;2023-04-07T10:04:45;98719.88;;;9.39;100.00
16431;BME280;8325;49.284;7.238;2023-04-07T10:08:57;98732.56;;;9.34;100.00
16431;BME280;8325;49.284;7.238;2023-04-07T10:13:08;98726.69;;;9.40;100.00
16431;BME280;8325;49.284;7.238;2023-04-07T10:17:21;98725.41;;;9.61;100.00
16431;BME280;8325;49.284;7.238;2023-04-07T10:21:38;98722.47;;;9.80;100.00
16431;BME280;8325;49.284;7.238;2023-04-07T10:25:51;98732.56;;;9.91;98.58
16431;BME280;8325;49.284;7.238;2023-04-07T10:30:06;98736.94;;;9.99;96.87
16431;BME280;8325;49.284;7.238;2023-04-07T10:43:36;98748.44;;;8.98;100.00
16431;BME280;8325;49.284;7.238;2023-04-07T10:56:23;98752.34;;;8.94;100.00
16431;BME280;8325;49.284;7.238;2023-04-07T11:00:36;98755.84;;;9.19;100.00
16431;BME280;8325;49.284;7.238;2023-04-07T11:04:47;98753.13;;;9.45;100.00
16431;BME280;8325;49.284;7.238;2023-04-07T11:08:59;98751.81;;;9.74;100.00
16431;BME280;8325;49.284;7.238;2023-04-07T11:13:10;98756.38;;;9.88;100.00
16431;BME280;8325;49.284;7.238;2023-04-07T11:17:22;98753.41;;;10.00;100.00
16431;BME280;8325;49.284;7.238;2023-04-07T11:21:34;98751.28;;;10.03;100.00
16431;BME280;8325;49.284;7.238;2023-04-07T11:25:48;98747.56;;;9.98;100.00
16431;BME280;8325;49.284;7.238;2023-04-07T11:30:00;98754.56;;;10.05;100.00
16431;BME280;8325;49.284;7.238;2023-04-07T11:34:12;98760.59;;;10.14;100.00
16431;BME280;8325;49.284;7.238;2023-04-07T11:38:28;98759.28;;;10.10;100.00
16431;BME280;8325;49.284;7.238;2023-04-07T11:42:41;98766.94;;;10.28;99.87
16431;BME280;8325;49.284;7.238;2023-04-07T11:46:56;98764.63;;;10.41;97.28
16431;BME280;8325;49.284;7.238;2023-04-07T11:51:22;98769.81;;;10.49;96.78
16431;BME280;8325;49.284;7.238;2023-04-07T11:55:38;98761.22;;;10.80;97.19
16431;BME280;8325;49.284;7.238;2023-04-07T11:59:49;98761.78;;;11.29;93.28
16431;BME280;8325;49.284;7.238;2023-04-07T12:04:03;98754.41;;;11.56;87.03
16431;BME280;8325;49.284;7.238;2023-04-07T12:08:15;98761.34;;;11.49;82.17
16431;BME280;8325;49.284;7.238;2023-04-07T12:12:27;98758.13;;;11.39;81.75
16431;BME280;8325;49.284;7.238;2023-04-07T12:16:39;98764.69;;;11.35;81.40
16431;BME280;8325;49.284;7.238;2023-04-07T12:20:53;98769.22;;;11.41;85.89
16431;BME280;8325;49.284;7.238;2023-04-07T12:25:04;98769.63;;;11.29;84.07
16431;BME280;8325;49.284;7.238;2023-04-07T12:29:16;98767.28;;;11.12;80.79
16431;BME280;8325;49.284;7.238;2023-04-07T12:33:30;98762.34;;;11.17;81.19
16431;BME280;8325;49.284;7.238;2023-04-07T12:37:42;98758.63;;;11.11;80.49
16431;BME280;8325;49.284;7.238;2023-04-07T12:41:54;98764.94;;;10.94;80.38
16431;BME280;8325;49.284;7.238;2023-04-07T12:46:05;98765.53;;;11.04;80.76
16431;BME280;8325;49.284;7.238;2023-04-07T12:50:17;98766.03;;;11.31;83.04
16431;BME280;8325;49.284;7.238;2023-04-07T12:54:29;98753.06;;;11.60;81.96
16431;BME280;8325;49.284;7.238;2023-04-07T12:58:40;98750.16;;;12.01;81.20
16431;BME280;8325;49.284;7.238;2023-04-07T13:02:53;98751.19;;;12.44;80.22
16431;BME280;8325;49.284;7.238;2023-04-07T13:07:05;98747.75;;;12.44;77.31
16431;BME280;8325;49.284;7.238;2023-04-07T13:11:16;98745.56;;;12.18;77.34
16431;BME280;8325;49.284;7.238;2023-04-07T13:15:28;98748.00;;;12.19;77.27
16431;BME280;8325;49.284;7.238;2023-04-07T13:19:39;98755.03;;;12.04;77.60
16431;BME280;8325;49.284;7.238;2023-04-07T13:23:51;98750.38;;;11.68;78.45
16431;BME280;8325;49.284;7.238;2023-04-07T13:28:06;98755.06;;;11.58;79.91
16431;BME280;8325;49.284;7.238;2023-04-07T13:32:18;98761.50;;;11.70;79.82
16431;BME280;8325;49.284;7.238;2023-04-07T13:36:30;98751.91;;;11.86;80.78
16431;BME280;8325;49.284;7.238;2023-04-07T13:46:39;98749.50;;;11.99;81.90
16431;BME280;8325;49.284;7.238;2023-04-07T13:56:02;98755.41;;;11.55;84.02
16431;BME280;8325;49.284;7.238;2023-04-07T14:00:26;98756.97;;;11.41;85.75
16431;BME280;8325;49.284;7.238;2023-04-07T14:05:03;98751.81;;;11.33;85.43
16431;BME280;8325;49.284;7.238;2023-04-07T14:09:18;98750.41;;;11.45;83.92
16431;BME280;8325;49.284;7.238;2023-04-07T14:13:29;98756.25;;;11.24;83.40
16431;BME280;8325;49.284;7.238;2023-04-07T14:17:41;98754.28;;;11.26;84.05
16431;BME280;8325;49.284;7.238;2023-04-07T14:21:53;98759.16;;;11.06;85.22
16431;BME280;8325;49.284;7.238;2023-04-07T14:26:04;98756.97;;;10.87;85.26
16431;BME280;8325;49.284;7.238;2023-04-07T14:30:19;98773.94;;;10.35;92.85
16431;BME280;8325;49.284;7.238;2023-04-07T14:34:31;98780.50;;;9.58;95.36
16431;BME280;8325;49.284;7.238;2023-04-07T14:38:42;98783.06;;;9.25;96.74
16431;BME280;8325;49.284;7.238;2023-04-07T14:42:54;98784.75;;;8.92;100.00
16431;BME280;8325;49.284;7.238;2023-04-07T14:47:17;98792.00;;;8.80;100.00
16431;BME280;8325;49.284;7.238;2023-04-07T14:51:29;98787.44;;;8.74;100.00
16431;BME280;8325;49.284;7.238;2023-04-07T14:55:41;98785.13;;;8.71;100.00
16431;BME280;8325;49.284;7.238;2023-04-07T14:59:52;98782.13;;;8.92;100.00
16431;BME280;8325;49.284;7.238;2023-04-07T15:04:04;98788.88;;;9.03;100.00
16431;BME280;8325;49.284;7.238;2023-04-07T15:08:16;98790.84;;;9.09;100.00
16431;BME280;8325;49.284;7.238;2023-04-07T15:12:27;98792.13;;;9.13;100.00
16431;BME280;8325;49.284;7.238;2023-04-07T15:16:41;98791.81;;;9.16;100.00
16431;BME280;8325;49.284;7.238;2023-04-07T15:20:53;98785.16;;;9.30;100.00
16431;BME280;8325;49.284;7.238;2023-04-07T15:25:05;98782.91;;;9.35;100.00
16431;BME280;8325;49.284;7.238;2023-04-07T15:29:17;98777.22;;;9.39;100.00
16431;BME280;8325;49.284;7.238;2023-04-07T15:33:28;98778.03;;;9.40;100.00
16431;BME280;8325;49.284;7.238;2023-04-07T15:37:40;98790.09;;;9.41;100.00
16431;BME280;8325;49.284;7.238;2023-04-07T15:41:52;98801.50;;;9.48;100.00
16431;BME280;8325;49.284;7.238;2023-04-07T15:46:03;98808.88;;;9.61;100.00
16431;BME280;8325;49.284;7.238;2023-04-07T15:50:15;98796.31;;;9.64;100.00
16431;BME280;8325;49.284;7.238;2023-04-07T15:54:27;98795.50;;;9.64;100.00
16431;BME280;8325;49.284;7.238;2023-04-07T15:58:38;98802.84;;;9.68;100.00
16431;BME280;8325;49.284;7.238;2023-04-07T16:02:50;98803.00;;;9.67;100.00
16431;BME280;8325;49.284;7.238;2023-04-07T16:07:03;98814.56;;;9.64;100.00
16431;BME280;8325;49.284;7.238;2023-04-07T16:11:14;98808.22;;;9.67;100.00
16431;BME280;8325;49.284;7.238;2023-04-07T16:15:26;98817.50;;;9.78;100.00
16431;BME280;8325;49.284;7.238;2023-04-07T16:19:51;98822.91;;;9.76;100.00
16431;BME280;8325;49.284;7.238;2023-04-07T16:24:03;98820.59;;;9.81;100.00
16431;BME280;8325;49.284;7.238;2023-04-07T16:28:14;98824.03;;;9.82;100.00
16431;BME280;8325;49.284;7.238;2023-04-07T16:32:26;98827.28;;;9.67;100.00
16431;BME280;8325;49.284;7.238;2023-04-07T16:36:38;98831.50;;;9.52;100.00
16431;BME280;8325;49.284;7.238;2023-04-07T16:40:49;98834.59;;;9.56;100.00
16431;BME280;8325;49.284;7.238;2023-04-07T16:45:15;98839.53;;;9.67;100.00
16431;BME280;8325;49.284;7.238;2023-04-07T16:49:26;98838.84;;;9.65;100.00
16431;BME280;8325;49.284;7.238;2023-04-07T16:53:38;98842.44;;;9.72;100.00
16431;BME280;8325;49.284;7.238;2023-04-07T16:57:49;98845.72;;;9.74;100.00
16431;BME280;8325;49.284;7.238;2023-04-07T17:02:08;98856.19;;;9.82;100.00
16431;BME280;8325;49.284;7.238;2023-04-07T17:06:21;98859.41;;;9.84;100.00
16431;BME280;8325;49.284;7.238;2023-04-07T17:10:33;98861.72;;;9.79;100.00
16431;BME280;8325;49.284;7.238;2023-04-07T17:14:44;98863.16;;;9.74;100.00
16431;BME280;8325;49.284;7.238;2023-04-07T17:18:56;98875.72;;;9.70;100.00
16431;BME280;8325;49.284;7.238;2023-04-07T17:23:08;98893.13;;;9.61;100.00
16431;BME280;8325;49.284;7.238;2023-04-07T17:27:20;98887.88;;;9.53;100.00
16431;BME280;8325;49.284;7.238;2023-04-07T17:31:32;98891.00;;;9.49;100.00
16431;BME280;8325;49.284;7.238;2023-04-07T17:35:46;98902.06;;;9.42;100.00
16431;BME280;8325;49.284;7.238;2023-04-07T17:40:00;98906.25;;;9.35;100.00
16431;BME280;8325;49.284;7.238;2023-04-07T17:44:12;98906.38;;;9.26;100.00
16431;BME280;8325;49.284;7.238;2023-04-07T17:48:23;98909.47;;;9.21;100.00
16431;BME280;8325;49.284;7.238;2023-04-07T17:52:35;98911.41;;;9.19;100.00
16431;BME280;8325;49.284;7.238;2023-04-07T17:56:47;98917.84;;;9.07;100.00
16431;BME280;8325;49.284;7.238;2023-04-07T18:00:59;98925.66;;;9.07;100.00
16431;BME280;8325;49.284;7.238;2023-04-07T18:05:10;98925.97;;;9.04;100.00
16431;BME280;8325;49.284;7.238;2023-04-07T18:09:22;98938.94;;;8.95;100.00
16431;BME280;8325;49.284;7.238;2023-04-07T18:13:34;98930.38;;;8.77;100.00
16431;BME280;8325;49.284;7.238;2023-04-07T18:17:45;98938.78;;;8.71;100.00
16431;BME280;8325;49.284;7.238;2023-04-07T18:21:59;98948.41;;;8.52;100.00
16431;BME280;8325;49.284;7.238;2023-04-07T18:26:11;98958.69;;;8.54;100.00
16431;BME280;8325;49.284;7.238;2023-04-07T18:30:23;98962.19;;;8.63;100.00
16431;BME280;8325;49.284;7.238;2023-04-07T18:34:34;98975.44;;;8.51;100.00
16431;BME280;8325;49.284;7.238;2023-04-07T18:38:46;98980.81;;;8.50;100.00
16431;BME280;8325;49.284;7.238;2023-04-07T18:42:57;98980.56;;;8.43;100.00
16431;BME280;8325;49.284;7.238;2023-04-07T18:47:09;98989.88;;;8.46;100.00
16431;BME280;8325;49.284;7.238;2023-04-07T18:51:21;98997.97;;;8.43;100.00
16431;BME280;8325;49.284;7.238;2023-04-07T18:55:32;98993.28;;;8.46;100.00
16431;BME280;8325;49.284;7.238;2023-04-07T18:59:44;99001.09;;;8.46;100.00
16431;BME280;8325;49.284;7.238;2023-04-07T19:03:56;99008.59;;;8.49;100.00
16431;BME280;8325;49.284;7.238;2023-04-07T19:08:08;99008.59;;;8.49;100.00
16431;BME280;8325;49.284;7.238;2023-04-07T19:12:20;99011.06;;;8.51;100.00
16431;BME280;8325;49.284;7.238;2023-04-07T19:16:33;99017.16;;;8.42;100.00
16431;BME280;8325;49.284;7.238;2023-04-07T19:20:44;99023.19;;;8.42;100.00
16431;BME280;8325;49.284;7.238;2023-04-07T19:24:56;99036.88;;;8.44;100.00
16431;BME280;8325;49.284;7.238;2023-04-07T19:29:07;99038.13;;;8.40;100.00
16431;BME280;8325;49.284;7.238;2023-04-07T19:33:22;99034.97;;;8.37;100.00
16431;BME280;8325;49.284;7.238;2023-04-07T19:37:33;99034.97;;;8.37;100.00
16431;BME280;8325;49.284;7.238;2023-04-07T19:41:48;99044.56;;;8.36;100.00
16431;BME280;8325;49.284;7.238;2023-04-07T19:45:59;99051.47;;;8.27;100.00
16431;BME280;8325;49.284;7.238;2023-04-07T19:50:11;99048.06;;;8.27;100.00
16431;BME280;8325;49.284;7.238;2023-04-07T19:54:30;99056.47;;;8.21;100.00
16431;BME280;8325;49.284;7.238;2023-04-07T19:58:44;99058.66;;;8.16;100.00
16431;BME280;8325;49.284;7.238;2023-04-07T20:02:56;99067.44;;;8.15;100.00
16431;BME280;8325;49.284;7.238;2023-04-07T20:07:08;99073.91;;;8.11;100.00
16431;BME280;8325;49.284;7.238;2023-04-07T20:11:20;99072.41;;;8.08;100.00
16431;BME280;8325;49.284;7.238;2023-04-07T20:15:32;99073.81;;;8.02;100.00
16431;BME280;8325;49.284;7.238;2023-04-07T20:19:43;99068.22;;;7.97;100.00
16431;BME280;8325;49.284;7.238;2023-04-07T20:23:55;99075.19;;;7.97;100.00
16431;BME280;8325;49.284;7.238;2023-04-07T20:28:06;99075.78;;;7.91;100.00
16431;BME280;8325;49.284;7.238;2023-04-07T20:32:18;99079.63;;;7.87;100.00
16431;BME280;8325;49.284;7.238;2023-04-07T20:36:30;99075.53;;;7.84;100.00
16431;BME280;8325;49.284;7.238;2023-04-07T20:40:41;99072.41;;;7.80;100.00
16431;BME280;8325;49.284;7.238;2023-04-07T20:44:53;99084.59;;;7.80;100.00
16431;BME280;8325;49.284;7.238;2023-04-07T20:49:12;99082.97;;;7.79;100.00
16431;BME280;8325;49.284;7.238;2023-04-07T20:53:24;99074.88;;;7.82;100.00
16431;BME280;8325;49.284;7.238;2023-04-07T20:57:37;99085.94;;;7.84;100.00
16431;BME280;8325;49.284;7.238;2023-04-07T21:01:49;99091.59;;;7.79;100.00
16431;BME280;8325;49.284;7.238;2023-04-07T21:06:01;99096.63;;;7.81;100.00
16431;BME280;8325;49.284;7.238;2023-04-07T21:10:15;99093.09;;;7.82;100.00
16431;BME280;8325;49.284;7.238;2023-04-07T21:14:26;99101.84;;;7.81;100.00
16431;BME280;8325;49.284;7.238;2023-04-07T21:18:38;99097.59;;;7.80;100.00
16431;BME280;8325;49.284;7.238;2023-04-07T21:22:49;99108.69;;;7.82;100.00
16431;BME280;8325;49.284;7.238;2023-04-07T21:27:01;99102.13;;;7.78;100.00
